Time;durP1;ratioP1;P1;durP2;ratioP2;P2;SDS_P1;SDS_P2;PMS_P1;PMS_P2;Temp;Humidity;BMP_temperature;BMP_pressure;BME280_temperature;BME280_humidity;BME280_pressure;Samples;Min_cycle;Max_cycle;Signal;HPM_P1;HPM_P2
2023/07/31 00:04:36;;;;;;;4.20;3.38;;;;;;;;;;10288337;28;20458;-62
2023/07/31 00:09:34;;;;;;;3.92;2.65;;;;;;;;;;10292626;28;20072;-63
2023/07/31 00:14:33;;;;;;;3.35;3.05;;;;;;;;;;10291057;28;20073;-63
2023/07/31 00:19:31;;;;;;;5.45;3.20;;;;;;;;;;10292468;28;20072;-62
2023/07/31 00:24:30;;;;;;;2.60;2.28;;;;;;;;;;10291240;28;20522;-62
2023/07/31 00:29:29;;;;;;;3.97;3.03;;;;;;;;;;10290482;28;20072;-62
2023/07/31 00:34:28;;;;;;;3.08;2.80;;;;;;;;;;10289484;28;20084;-63
2023/07/31 00:39:26;;;;;;;5.65;2.53;;;;;;;;;;10288554;28;20076;-63
2023/07/31 00:44:26;;;;;;;4.35;2.42;;;;;;;;;;10290517;28;20479;-62
2023/07/31 00:49:24;;;;;;;4.32;2.42;;;;;;;;;;10291279;28;20072;-62
2023/07/31 00:54:22;;;;;;;4.65;2.45;;;;;;;;;;10289347;28;20306;-61
2023/07/31 00:59:21;;;;;;;4.85;2.55;;;;;;;;;;10293314;28;20466;-62
2023/07/31 01:04:20;;;;;;;3.20;2.53;;;;;;;;;;10289379;28;20080;-61
2023/07/31 01:09:22;;;;;;;3.00;2.70;;;;;;;;;;10292157;28;20079;-62
2023/07/31 01:14:20;;;;;;;3.10;2.67;;;;;;;;;;10289090;28;20091;-62
2023/07/31 01:19:23;;;;;;;2.85;2.42;;;;;;;;;;10291105;28;20071;-62
2023/07/31 01:24:23;;;;;;;2.67;2.42;;;;;;;;;;10287702;28;20087;-62
2023/07/31 01:29:25;;;;;;;5.65;2.60;;;;;;;;;;10287047;28;20499;-62
2023/07/31 01:34:24;;;;;;;3.70;3.00;;;;;;;;;;10287481;28;20068;-62
2023/07/31 01:39:22;;;;;;;3.88;3.20;;;;;;;;;;10287981;28;20072;-62
2023/07/31 01:44:20;;;;;;;3.40;3.08;;;;;;;;;;10287252;28;20069;-62
2023/07/31 01:49:20;;;;;;;5.78;4.22;;;;;;;;;;10287707;28;20095;-61
2023/07/31 01:54:18;;;;;;;5.72;4.13;;;;;;;;;;10288495;28;20068;-62
2023/07/31 01:59:17;;;;;;;4.28;3.88;;;;;;;;;;10287880;28;20076;-62
2023/07/31 02:04:15;;;;;;;6.07;4.13;;;;;;;;;;10289335;28;20079;-61
2023/07/31 02:09:15;;;;;;;4.72;4.32;;;;;;;;;;10287492;28;20095;-61
2023/07/31 02:14:13;;;;;;;5.15;4.10;;;;;;;;;;10287225;28;20079;-61
2023/07/31 02:19:12;;;;;;;5.65;4.90;;;;;;;;;;10296054;28;20052;-61
2023/07/31 02:24:11;;;;;;;8.35;4.47;;;;;;;;;;10288755;28;20087;-61
2023/07/31 02:29:10;;;;;;;6.05;3.70;;;;;;;;;;10291390;28;20079;-61
2023/07/31 02:34:08;;;;;;;4.82;3.95;;;;;;;;;;10287223;28;20080;-61
2023/07/31 02:39:07;;;;;;;6.78;4.50;;;;;;;;;;10292917;28;20080;-62
2023/07/31 02:44:05;;;;;;;5.57;4.47;;;;;;;;;;10289501;28;20075;-62
2023/07/31 02:49:05;;;;;;;4.00;3.60;;;;;;;;;;10286085;28;20346;-62
2023/07/31 02:54:03;;;;;;;5.53;5.03;;;;;;;;;;10286102;28;20522;-62
2023/07/31 02:59:01;;;;;;;4.88;4.47;;;;;;;;;;10285711;28;20073;-61
2023/07/31 03:03:59;;;;;;;4.63;4.22;;;;;;;;;;10269381;28;20068;-62
2023/07/31 03:08:59;;;;;;;5.75;5.07;;;;;;;;;;10302379;28;20080;-62
2023/07/31 03:13:58;;;;;;;7.93;4.90;;;;;;;;;;10296340;28;20516;-62
2023/07/31 03:18:56;;;;;;;5.00;4.55;;;;;;;;;;10299647;28;20095;-62
2023/07/31 03:23:55;;;;;;;4.57;4.18;;;;;;;;;;10296128;28;20369;-62
2023/07/31 03:28:54;;;;;;;6.85;5.13;;;;;;;;;;10296014;28;20086;-61
2023/07/31 03:33:53;;;;;;;5.95;4.95;;;;;;;;;;10289722;28;20118;-61
2023/07/31 03:38:52;;;;;;;5.45;4.90;;;;;;;;;;10293415;28;20068;-63
2023/07/31 03:43:52;;;;;;;5.45;4.80;;;;;;;;;;10290856;28;20045;-61
2023/07/31 03:48:51;;;;;;;5.78;5.28;;;;;;;;;;10292880;28;20076;-61
2023/07/31 03:53:50;;;;;;;6.07;5.45;;;;;;;;;;10295298;28;20076;-61
2023/07/31 03:58:48;;;;;;;5.70;5.20;;;;;;;;;;10292647;28;20510;-62
2023/07/31 04:03:46;;;;;;;5.35;4.85;;;;;;;;;;10292980;28;20076;-62
2023/07/31 04:08:45;;;;;;;5.93;5.43;;;;;;;;;;10293183;28;20471;-61
2023/07/31 04:13:44;;;;;;;6.13;5.53;;;;;;;;;;10291112;28;20060;-61
2023/07/31 04:18:42;;;;;;;6.18;5.53;;;;;;;;;;10287124;28;20083;-62
2023/07/31 04:23:40;;;;;;;7.18;5.43;;;;;;;;;;10285330;28;20068;-62
2023/07/31 04:28:40;;;;;;;6.57;5.97;;;;;;;;;;10288970;28;20079;-62
2023/07/31 04:33:38;;;;;;;6.20;5.70;;;;;;;;;;10290943;28;20068;-62
2023/07/31 04:38:36;;;;;;;6.43;5.90;;;;;;;;;;10290518;28;20489;-62
2023/07/31 04:43:35;;;;;;;6.60;6.10;;;;;;;;;;10290992;28;20072;-62
2023/07/31 04:48:34;;;;;;;6.63;6.13;;;;;;;;;;10291340;28;20090;-61
2023/07/31 04:53:33;;;;;;;6.20;5.70;;;;;;;;;;10292201;28;20515;-63
2023/07/31 04:58:31;;;;;;;7.25;6.40;;;;;;;;;;10290347;28;20069;-62
2023/07/31 05:03:29;;;;;;;11.40;10.40;;;;;;;;;;10288086;28;20075;-62
2023/07/31 05:08:29;;;;;;;7.85;7.10;;;;;;;;;;10289586;28;20072;-63
2023/07/31 05:13:27;;;;;;;29.40;26.50;;;;;;;;;;10289241;28;20069;-63
2023/07/31 05:18:25;;;;;;;7.78;7.10;;;;;;;;;;10291459;28;20484;-62
2023/07/31 05:23:23;;;;;;;13.32;12.20;;;;;;;;;;10286314;28;20072;-62
2023/07/31 05:28:23;;;;;;;9.57;8.77;;;;;;;;;;10288818;28;20083;-62
2023/07/31 05:33:21;;;;;;;6.88;6.28;;;;;;;;;;10288779;28;20513;-62
2023/07/31 05:38:20;;;;;;;7.60;6.90;;;;;;;;;;10292499;28;20076;-62
2023/07/31 05:43:18;;;;;;;7.68;6.28;;;;;;;;;;10287827;28;20068;-62
2023/07/31 05:48:17;;;;;;;8.00;7.18;;;;;;;;;;10287438;28;20076;-62
2023/07/31 05:53:16;;;;;;;6.65;6.15;;;;;;;;;;10288389;28;20076;-62
2023/07/31 05:58:16;;;;;;;7.32;6.63;;;;;;;;;;10287038;28;20545;-62
2023/07/31 06:03:14;;;;;;;6.68;6.10;;;;;;;;;;10287079;28;20076;-62
2023/07/31 06:08:14;;;;;;;8.13;7.28;;;;;;;;;;10287424;28;20077;-61
2023/07/31 06:13:12;;;;;;;8.50;6.05;;;;;;;;;;10289342;28;20076;-61
2023/07/31 06:18:11;;;;;;;8.93;6.22;;;;;;;;;;10289663;28;20160;-61
2023/07/31 06:23:09;;;;;;;8.75;6.68;;;;;;;;;;10289428;28;20091;-61
2023/07/31 06:28:08;;;;;;;7.30;6.70;;;;;;;;;;10287768;28;20068;-63
2023/07/31 06:33:07;;;;;;;10.20;9.15;;;;;;;;;;10283983;28;20081;-63
2023/07/31 06:38:05;;;;;;;7.85;7.25;;;;;;;;;;10288275;28;20079;-63
2023/07/31 06:43:07;;;;;;;7.03;6.30;;;;;;;;;;10292167;28;20068;-63
2023/07/31 06:48:07;;;;;;;7.75;7.05;;;;;;;;;;10291989;28;20529;-62
2023/07/31 06:53:05;;;;;;;7.32;6.72;;;;;;;;;;10280082;28;20069;-62
2023/07/31 06:58:04;;;;;;;9.38;6.88;;;;;;;;;;10282222;28;20516;-62
2023/07/31 07:03:02;;;;;;;7.68;6.97;;;;;;;;;;10279061;28;20076;-62
2023/07/31 07:08:02;;;;;;;8.20;7.50;;;;;;;;;;10289325;28;20075;-62
2023/07/31 07:13:00;;;;;;;6.35;5.85;;;;;;;;;;10275570;28;20701;-61
2023/07/31 07:17:58;;;;;;;9.98;7.22;;;;;;;;;;10287760;28;20072;-61
2023/07/31 07:22:57;;;;;;;6.80;6.25;;;;;;;;;;10272683;28;20072;-60
2023/07/31 07:27:56;;;;;;;7.03;6.43;;;;;;;;;;10293182;28;20069;-61
2023/07/31 07:32:54;;;;;;;5.28;4.82;;;;;;;;;;10269374;28;20061;-61
2023/07/31 07:37:53;;;;;;;6.57;5.93;;;;;;;;;;10282639;28;20104;-61
2023/07/31 07:42:51;;;;;;;6.93;5.40;;;;;;;;;;10287012;28;20072;-61
2023/07/31 07:47:51;;;;;;;5.13;4.72;;;;;;;;;;10289243;28;20085;-62
2023/07/31 07:52:49;;;;;;;10.15;6.63;;;;;;;;;;10288647;28;20079;-61
2023/07/31 07:57:50;;;;;;;6.35;5.75;;;;;;;;;;10267121;28;20073;-60
2023/07/31 08:02:51;;;;;;;6.75;6.15;;;;;;;;;;10278223;28;20065;-61
2023/07/31 08:07:50;;;;;;;5.75;5.13;;;;;;;;;;10281415;28;20079;-60
2023/07/31 08:12:48;;;;;;;6.60;6.00;;;;;;;;;;10271309;28;20068;-61
2023/07/31 08:17:46;;;;;;;6.22;5.72;;;;;;;;;;10288211;28;20076;-61
2023/07/31 08:22:46;;;;;;;8.15;6.53;;;;;;;;;;10262786;28;20087;-62
2023/07/31 08:27:44;;;;;;;6.03;5.50;;;;;;;;;;10279828;28;20072;-62
2023/07/31 08:32:42;;;;;;;6.93;6.28;;;;;;;;;;10287847;28;20068;-61
2023/07/31 08:37:41;;;;;;;7.82;7.00;;;;;;;;;;10288435;28;20068;-61
2023/07/31 08:42:46;;;;;;;6.47;5.80;;;;;;;;;;10281768;28;20520;-61
2023/07/31 08:47:45;;;;;;;8.73;6.88;;;;;;;;;;10279697;28;20076;-62
2023/07/31 08:52:46;;;;;;;7.10;6.43;;;;;;;;;;10287249;28;20512;-62
2023/07/31 08:57:47;;;;;;;6.28;5.78;;;;;;;;;;10284201;28;20073;-61
2023/07/31 09:02:46;;;;;;;7.70;5.90;;;;;;;;;;10269178;28;20072;-61
2023/07/31 09:07:47;;;;;;;7.07;6.22;;;;;;;;;;10280959;28;20076;-60
2023/07/31 09:12:55;;;;;;;8.30;5.32;;;;;;;;;;10288630;28;20068;-61
2023/07/31 09:18:00;;;;;;;6.63;6.03;;;;;;;;;;10286129;28;20076;-61
2023/07/31 09:23:05;;;;;;;5.33;4.93;;;;;;;;;;10285926;28;20537;-62
2023/07/31 09:28:06;;;;;;;5.38;4.93;;;;;;;;;;10289848;28;20091;-61
2023/07/31 09:33:06;;;;;;;6.18;5.65;;;;;;;;;;10284484;28;20081;-61
2023/07/31 09:38:05;;;;;;;8.52;5.75;;;;;;;;;;10285893;28;20059;-62
2023/07/31 09:43:03;;;;;;;7.20;6.50;;;;;;;;;;10289101;28;20087;-61
2023/07/31 09:48:04;;;;;;;6.45;5.72;;;;;;;;;;10280795;28;20069;-61
2023/07/31 09:53:02;;;;;;;6.95;5.72;;;;;;;;;;10278593;28;20080;-62
2023/07/31 09:58:02;;;;;;;7.28;6.38;;;;;;;;;;10271378;28;20079;-61
2023/07/31 10:03:01;;;;;;;9.40;6.68;;;;;;;;;;10286462;28;20152;-61
2023/07/31 10:08:02;;;;;;;8.68;7.78;;;;;;;;;;10289476;28;20068;-62
2023/07/31 10:13:00;;;;;;;9.25;7.47;;;;;;;;;;10284292;28;20167;-61
2023/07/31 10:17:59;;;;;;;8.77;7.93;;;;;;;;;;10286200;28;20063;-62
2023/07/31 10:22:58;;;;;;;11.77;9.00;;;;;;;;;;10286300;28;20088;-62
2023/07/31 10:27:59;;;;;;;10.75;8.43;;;;;;;;;;10265924;28;20093;-62
2023/07/31 10:32:58;;;;;;;26.23;13.48;;;;;;;;;;10280168;28;20076;-62
2023/07/31 10:38:04;;;;;;;17.20;11.65;;;;;;;;;;10287190;28;20068;-62
2023/07/31 10:43:04;;;;;;;23.85;16.83;;;;;;;;;;10283470;28;20085;-62
2023/07/31 10:48:03;;;;;;;15.25;13.20;;;;;;;;;;10281956;28;20064;-62
2023/07/31 10:53:01;;;;;;;14.68;10.45;;;;;;;;;;10268737;28;20083;-60
2023/07/31 10:58:07;;;;;;;11.38;10.25;;;;;;;;;;10275615;28;20064;-61
2023/07/31 11:03:06;;;;;;;10.85;9.70;;;;;;;;;;10276718;28;20081;-62
2023/07/31 11:08:11;;;;;;;10.82;8.85;;;;;;;;;;10269234;28;20053;-62
2023/07/31 11:13:10;;;;;;;9.85;9.05;;;;;;;;;;10275334;28;20073;-62
2023/07/31 11:18:10;;;;;;;9.85;8.88;;;;;;;;;;10279601;28;20470;-62
2023/07/31 11:23:10;;;;;;;10.85;9.57;;;;;;;;;;10279296;28;20080;-62
2023/07/31 11:28:10;;;;;;;11.13;10.00;;;;;;;;;;10284415;28;20072;-62
2023/07/31 11:33:09;;;;;;;12.48;9.70;;;;;;;;;;10273467;28;20114;-62
2023/07/31 11:38:08;;;;;;;13.23;9.20;;;;;;;;;;10293010;28;20122;-62
2023/07/31 11:43:06;;;;;;;11.98;9.85;;;;;;;;;;10278468;28;20076;-62
2023/07/31 11:48:06;;;;;;;12.77;9.70;;;;;;;;;;10282779;28;20065;-62
2023/07/31 11:53:08;;;;;;;12.23;9.65;;;;;;;;;;10281853;28;20091;-61
2023/07/31 11:58:06;;;;;;;12.88;8.98;;;;;;;;;;10293899;28;20498;-62
2023/07/31 12:03:06;;;;;;;10.25;9.18;;;;;;;;;;10294122;28;20076;-63
2023/07/31 12:08:09;;;;;;;11.93;9.98;;;;;;;;;;10290486;28;20071;-62
2023/07/31 12:13:10;;;;;;;11.02;9.88;;;;;;;;;;10294524;28;20076;-63
2023/07/31 12:18:14;;;;;;;10.45;8.98;;;;;;;;;;10293712;28;20079;-61
2023/07/31 12:23:16;;;;;;;12.52;7.90;;;;;;;;;;10293353;28;20195;-62
2023/07/31 12:28:14;;;;;;;13.10;9.75;;;;;;;;;;10292006;28;20079;-62
2023/07/31 12:33:16;;;;;;;11.00;9.70;;;;;;;;;;10291519;28;20076;-61
2023/07/31 12:38:15;;;;;;;9.80;8.68;;;;;;;;;;10286995;28;20080;-62
2023/07/31 12:43:16;;;;;;;9.93;8.85;;;;;;;;;;10289532;28;20069;-63
2023/07/31 12:48:14;;;;;;;12.57;9.55;;;;;;;;;;10283303;28;20546;-62
2023/07/31 12:53:14;;;;;;;18.23;11.90;;;;;;;;;;10292408;28;20075;-63
2023/07/31 12:58:12;;;;;;;10.82;9.77;;;;;;;;;;10290193;28;20091;-63
2023/07/31 13:03:10;;;;;;;8.50;7.60;;;;;;;;;;10272617;28;20076;-63
2023/07/31 13:08:09;;;;;;;9.95;7.88;;;;;;;;;;10285455;28;20072;-62
2023/07/31 13:13:10;;;;;;;7.43;5.53;;;;;;;;;;10283941;28;20084;-61
2023/07/31 13:18:08;;;;;;;6.82;6.13;;;;;;;;;;10271159;28;20080;-62
2023/07/31 13:23:17;;;;;;;6.13;5.55;;;;;;;;;;10272202;28;20077;-62
2023/07/31 13:28:16;;;;;;;4.93;4.10;;;;;;;;;;10269737;28;20072;-62
2023/07/31 13:33:15;;;;;;;5.88;5.38;;;;;;;;;;10278771;28;20090;-63
2023/07/31 13:38:33;;;;;;;6.07;5.47;;;;;;;;;;10288278;28;20080;-63
2023/07/31 13:43:34;;;;;;;6.95;6.25;;;;;;;;;;10269525;28;20072;-64
2023/07/31 13:48:32;;;;;;;14.10;12.63;;;;;;;;;;10263371;28;20064;-62
2023/07/31 13:53:31;;;;;;;9.40;6.75;;;;;;;;;;10277207;28;20156;-64
2023/07/31 13:58:30;;;;;;;6.85;6.18;;;;;;;;;;10285179;28;20075;-62
2023/07/31 14:03:29;;;;;;;7.63;5.65;;;;;;;;;;10285983;28;20087;-61
2023/07/31 14:08:27;;;;;;;7.22;6.50;;;;;;;;;;10287692;28;20102;-62
2023/07/31 14:13:26;;;;;;;11.02;6.60;;;;;;;;;;10289826;28;20073;-63
2023/07/31 14:18:24;;;;;;;11.10;5.65;;;;;;;;;;10289937;28;20068;-61
2023/07/31 14:23:24;;;;;;;7.05;5.60;;;;;;;;;;10286496;28;20079;-62
2023/07/31 14:28:22;;;;;;;10.20;6.05;;;;;;;;;;10291707;28;20064;-63
2023/07/31 14:33:21;;;;;;;9.60;6.70;;;;;;;;;;10289076;28;20072;-62
2023/07/31 14:38:19;;;;;;;8.10;7.30;;;;;;;;;;10290149;28;20087;-62
2023/07/31 14:43:19;;;;;;;7.20;6.35;;;;;;;;;;10290377;28;20073;-63
2023/07/31 14:48:17;;;;;;;7.93;6.60;;;;;;;;;;10287863;28;20079;-62
2023/07/31 14:53:15;;;;;;;6.68;6.00;;;;;;;;;;10278355;28;20080;-63
2023/07/31 14:58:14;;;;;;;12.45;7.40;;;;;;;;;;10289334;28;20075;-61
2023/07/31 15:03:14;;;;;;;8.25;6.05;;;;;;;;;;10297690;28;20064;-61
2023/07/31 15:08:19;;;;;;;7.18;6.47;;;;;;;;;;10295774;28;20087;-62
2023/07/31 15:13:17;;;;;;;10.55;6.30;;;;;;;;;;10294573;28;20064;-62
2023/07/31 15:18:17;;;;;;;14.50;9.38;;;;;;;;;;10294881;28;20065;-62
2023/07/31 15:23:15;;;;;;;14.02;8.90;;;;;;;;;;10296176;28;20084;-63
2023/07/31 15:28:13;;;;;;;10.52;7.18;;;;;;;;;;10295507;28;20699;-62
2023/07/31 15:33:12;;;;;;;9.50;6.82;;;;;;;;;;10295967;28;20501;-63
2023/07/31 15:38:11;;;;;;;7.10;6.07;;;;;;;;;;10294217;28;20485;-63
2023/07/31 15:43:09;;;;;;;6.20;5.57;;;;;;;;;;10293961;28;20118;-61
2023/07/31 15:48:08;;;;;;;4.82;4.32;;;;;;;;;;10296464;28;20087;-63
2023/07/31 15:53:06;;;;;;;5.13;4.72;;;;;;;;;;10296331;28;20072;-63
2023/07/31 15:58:06;;;;;;;6.82;4.90;;;;;;;;;;10294581;28;20075;-62
2023/07/31 16:03:04;;;;;;;4.95;4.55;;;;;;;;;;10293782;28;20161;-62
2023/07/31 16:08:02;;;;;;;6.00;5.40;;;;;;;;;;10294934;28;20107;-62
2023/07/31 16:13:01;;;;;;;5.60;4.70;;;;;;;;;;10294522;28;20079;-62
2023/07/31 16:18:00;;;;;;;6.97;5.32;;;;;;;;;;10295194;28;20110;-62
2023/07/31 16:22:59;;;;;;;7.63;4.35;;;;;;;;;;10294338;28;20490;-62
2023/07/31 16:27:57;;;;;;;4.50;4.10;;;;;;;;;;10295309;28;20526;-62
2023/07/31 16:32:55;;;;;;;7.32;4.63;;;;;;;;;;10291708;28;20080;-62
2023/07/31 16:37:55;;;;;;;16.20;9.45;;;;;;;;;;10294409;28;20076;-62
2023/07/31 16:42:54;;;;;;;4.55;4.15;;;;;;;;;;10294606;28;20103;-62
2023/07/31 16:47:52;;;;;;;6.68;5.38;;;;;;;;;;10293587;28;20060;-62
2023/07/31 16:52:50;;;;;;;4.63;4.18;;;;;;;;;;10294505;28;20068;-63
2023/07/31 16:57:50;;;;;;;8.80;4.80;;;;;;;;;;10290597;28;20541;-62
2023/07/31 17:02:48;;;;;;;6.68;4.30;;;;;;;;;;10293031;28;20086;-62
2023/07/31 17:07:47;;;;;;;5.45;4.90;;;;;;;;;;10293125;28;20068;-62
2023/07/31 17:12:45;;;;;;;4.28;3.40;;;;;;;;;;10291610;28;20075;-62
2023/07/31 17:17:45;;;;;;;4.05;3.65;;;;;;;;;;10281506;28;20064;-62
2023/07/31 17:22:44;;;;;;;5.72;4.13;;;;;;;;;;10276988;28;20084;-62
2023/07/31 17:27:46;;;;;;;4.20;3.80;;;;;;;;;;10285007;28;20533;-62
2023/07/31 17:32:48;;;;;;;7.53;4.40;;;;;;;;;;10289214;28;20072;-62
2023/07/31 17:37:47;;;;;;;7.18;3.90;;;;;;;;;;10293896;28;20083;-63
2023/07/31 17:42:45;;;;;;;5.15;4.65;;;;;;;;;;10289787;28;20064;-62
2023/07/31 17:47:43;;;;;;;5.38;4.88;;;;;;;;;;10276856;28;20080;-62
2023/07/31 17:52:43;;;;;;;6.10;3.90;;;;;;;;;;10288941;28;20088;-62
2023/07/31 17:57:41;;;;;;;4.70;4.25;;;;;;;;;;10284750;28;20076;-62
2023/07/31 18:02:39;;;;;;;6.07;4.32;;;;;;;;;;10285939;28;20076;-62
2023/07/31 18:07:40;;;;;;;4.20;3.90;;;;;;;;;;10284295;28;20060;-62
2023/07/31 18:12:40;;;;;;;6.05;4.90;;;;;;;;;;10286154;28;20083;-63
2023/07/31 18:17:38;;;;;;;5.20;4.55;;;;;;;;;;10287107;28;20060;-61
2023/07/31 18:22:36;;;;;;;5.38;4.80;;;;;;;;;;10286646;28;20493;-61
2023/07/31 18:27:34;;;;;;;5.88;4.95;;;;;;;;;;10285642;28;20068;-61
2023/07/31 18:32:34;;;;;;;4.70;4.30;;;;;;;;;;10289860;28;20075;-62
2023/07/31 18:37:32;;;;;;;6.03;4.72;;;;;;;;;;10286201;28;20072;-62
2023/07/31 18:42:31;;;;;;;5.18;4.68;;;;;;;;;;10281412;28;20071;-62
2023/07/31 18:47:32;;;;;;;6.22;5.35;;;;;;;;;;10285442;28;20073;-60
2023/07/31 18:52:33;;;;;;;5.90;4.95;;;;;;;;;;10284904;28;20076;-61
2023/07/31 18:57:31;;;;;;;4.78;4.28;;;;;;;;;;10273229;28;20076;-61
2023/07/31 19:02:29;;;;;;;8.88;5.50;;;;;;;;;;10283959;28;20486;-62
2023/07/31 19:07:29;;;;;;;5.20;4.70;;;;;;;;;;10284222;28;20072;-62
2023/07/31 19:12:30;;;;;;;5.88;5.25;;;;;;;;;;10284640;28;20489;-62
2023/07/31 19:17:29;;;;;;;5.97;4.10;;;;;;;;;;10272056;28;20069;-62
2023/07/31 19:22:27;;;;;;;5.28;4.57;;;;;;;;;;10269846;28;20076;-62
2023/07/31 19:27:25;;;;;;;6.32;4.47;;;;;;;;;;10279614;28;20065;-62
2023/07/31 19:32:25;;;;;;;7.15;4.72;;;;;;;;;;10267189;28;20061;-61
2023/07/31 19:37:24;;;;;;;5.07;4.68;;;;;;;;;;10284671;28;20446;-60
2023/07/31 19:42:25;;;;;;;5.50;5.00;;;;;;;;;;10281434;28;20061;-61
2023/07/31 19:47:25;;;;;;;6.88;5.15;;;;;;;;;;10270697;28;20079;-60
2023/07/31 19:52:24;;;;;;;9.02;5.05;;;;;;;;;;10284934;28;20063;-60
2023/07/31 19:57:22;;;;;;;5.13;4.63;;;;;;;;;;10289277;28;20079;-60
2023/07/31 20:02:20;;;;;;;6.45;4.97;;;;;;;;;;10291770;28;20060;-61
2023/07/31 20:07:21;;;;;;;5.45;4.65;;;;;;;;;;10291741;28;20076;-60
2023/07/31 20:12:20;;;;;;;5.72;5.05;;;;;;;;;;10290671;28;20060;-60
2023/07/31 20:17:18;;;;;;;4.80;4.30;;;;;;;;;;10289662;28;20064;-63
2023/07/31 20:22:16;;;;;;;5.07;4.57;;;;;;;;;;10290336;28;20099;-61
2023/07/31 20:27:20;;;;;;;4.88;4.40;;;;;;;;;;10292901;28;20072;-61
2023/07/31 20:32:18;;;;;;;4.32;3.92;;;;;;;;;;10292036;28;20532;-62
2023/07/31 20:37:17;;;;;;;4.18;3.88;;;;;;;;;;10286684;28;20087;-62
2023/07/31 20:42:20;;;;;;;4.95;4.55;;;;;;;;;;10292633;28;20072;-62
2023/07/31 20:47:18;;;;;;;4.55;3.67;;;;;;;;;;10283891;28;20068;-62
2023/07/31 20:52:16;;;;;;;4.20;3.83;;;;;;;;;;10288652;28;20087;-62
2023/07/31 20:57:15;;;;;;;6.68;4.35;;;;;;;;;;10288967;28;20477;-62
2023/07/31 21:02:14;;;;;;;4.90;3.80;;;;;;;;;;10287746;28;20041;-62
2023/07/31 21:07:14;;;;;;;4.25;3.85;;;;;;;;;;10283554;28;20080;-63
2023/07/31 21:12:13;;;;;;;4.15;3.75;;;;;;;;;;10288488;28;20083;-62
2023/07/31 21:17:11;;;;;;;4.05;3.75;;;;;;;;;;10289593;28;20305;-62
2023/07/31 21:22:13;;;;;;;4.20;3.80;;;;;;;;;;10287044;28;20080;-62
2023/07/31 21:27:11;;;;;;;3.90;3.50;;;;;;;;;;10288140;28;20060;-61
2023/07/31 21:32:10;;;;;;;4.10;3.70;;;;;;;;;;10288542;28;20080;-61
2023/07/31 21:37:10;;;;;;;3.53;3.22;;;;;;;;;;10285135;28;20509;-62
2023/07/31 21:42:10;;;;;;;3.63;3.33;;;;;;;;;;10275076;28;20076;-62
2023/07/31 21:47:08;;;;;;;4.75;4.25;;;;;;;;;;10287846;28;20501;-61
2023/07/31 21:52:07;;;;;;;6.57;4.30;;;;;;;;;;10287706;28;20067;-61
2023/07/31 21:57:05;;;;;;;4.85;3.95;;;;;;;;;;10287739;28;20090;-61
2023/07/31 22:02:05;;;;;;;4.05;3.70;;;;;;;;;;10287410;28;20080;-61
2023/07/31 22:07:03;;;;;;;5.43;4.05;;;;;;;;;;10274472;28;20064;-62
2023/07/31 22:12:01;;;;;;;3.97;3.67;;;;;;;;;;10287000;28;20072;-62
2023/07/31 22:17:00;;;;;;;3.97;3.67;;;;;;;;;;10287799;28;20079;-62
2023/07/31 22:22:00;;;;;;;4.75;3.70;;;;;;;;;;10287679;28;20072;-60
2023/07/31 22:26:58;;;;;;;3.92;3.53;;;;;;;;;;10287854;28;20529;-62
2023/07/31 22:31:56;;;;;;;3.50;3.20;;;;;;;;;;10285282;28;20075;-62
2023/07/31 22:36:55;;;;;;;3.63;3.33;;;;;;;;;;10283837;28;20080;-62
2023/07/31 22:41:54;;;;;;;6.07;4.00;;;;;;;;;;10288440;28;20072;-62
2023/07/31 22:46:52;;;;;;;5.03;4.07;;;;;;;;;;10289044;28;20158;-63
2023/07/31 22:51:50;;;;;;;3.78;3.47;;;;;;;;;;10287337;28;20079;-62
2023/07/31 22:56:49;;;;;;;4.38;3.88;;;;;;;;;;10286505;28;20080;-62
2023/07/31 23:01:48;;;;;;;3.83;3.53;;;;;;;;;;10286624;28;20076;-63
2023/07/31 23:06:47;;;;;;;3.83;3.53;;;;;;;;;;10287462;28;20119;-63
2023/07/31 23:11:45;;;;;;;5.40;3.97;;;;;;;;;;10284732;28;20079;-62
2023/07/31 23:16:43;;;;;;;3.83;3.53;;;;;;;;;;10287484;28;20082;-62
2023/07/31 23:21:43;;;;;;;6.57;4.40;;;;;;;;;;10287810;28;20156;-62
2023/07/31 23:26:41;;;;;;;4.38;3.97;;;;;;;;;;10293509;28;20087;-63
2023/07/31 23:31:39;;;;;;;4.95;3.85;;;;;;;;;;10291505;28;20513;-61
2023/07/31 23:36:38;;;;;;;6.70;4.65;;;;;;;;;;10296747;28;20080;-62
2023/07/31 23:41:38;;;;;;;4.60;4.15;;;;;;;;;;10289394;28;20533;-62
2023/07/31 23:46:36;;;;;;;5.88;4.35;;;;;;;;;;10290251;28;20076;-62
2023/07/31 23:51:34;;;;;;;5.13;4.63;;;;;;;;;;10293669;28;20072;-62
2023/07/31 23:56:33;;;;;;;5.28;3.65;;;;;;;;;;10293073;28;20090;-63
